sensor_id;sensor_type;location;lat;lon;timestamp;P1;durP1;ratioP1;P2;durP2;ratioP2
21432;SDS011;18592;49.708;10.900;2023-04-30T00:01:37;3.22;;;2.92;;
21432;SDS011;18592;49.708;10.900;2023-04-30T00:03:39;3.90;;;2.92;;
21432;SDS011;18592;49.708;10.900;2023-04-30T00:05:40;3.80;;;2.95;;
21432;SDS011;18592;49.708;10.900;2023-04-30T00:07:42;3.42;;;3.13;;
21432;SDS011;18592;49.708;10.900;2023-04-30T00:09:43;3.17;;;2.88;;
21432;SDS011;18592;49.708;10.900;2023-04-30T00:11:45;3.65;;;3.35;;
21432;SDS011;18592;49.708;10.900;2023-04-30T00:13:46;3.70;;;3.30;;
21432;SDS011;18592;49.708;10.900;2023-04-30T00:15:47;4.95;;;3.38;;
21432;SDS011;18592;49.708;10.900;2023-04-30T00:17:49;4.00;;;3.60;;
21432;SDS011;18592;49.708;10.900;2023-04-30T00:19:51;3.45;;;3.15;;
21432;SDS011;18592;49.708;10.900;2023-04-30T00:21:53;3.42;;;3.13;;
21432;SDS011;18592;49.708;10.900;2023-04-30T00:23:54;3.17;;;2.88;;
21432;SDS011;18592;49.708;10.900;2023-04-30T00:25:56;2.97;;;2.70;;
21432;SDS011;18592;49.708;10.900;2023-04-30T00:27:57;2.72;;;2.53;;
21432;SDS011;18592;49.708;10.900;2023-04-30T00:29:59;3.67;;;2.97;;
21432;SDS011;18592;49.708;10.900;2023-04-30T00:32:00;2.97;;;2.75;;
21432;SDS011;18592;49.708;10.900;2023-04-30T00:34:01;4.38;;;2.80;;
21432;SDS011;18592;49.708;10.900;2023-04-30T00:36:03;3.30;;;3.00;;
21432;SDS011;18592;49.708;10.900;2023-04-30T00:38:05;3.40;;;3.10;;
21432;SDS011;18592;49.708;10.900;2023-04-30T00:40:07;3.00;;;2.70;;
21432;SDS011;18592;49.708;10.900;2023-04-30T00:42:08;3.05;;;2.75;;
21432;SDS011;18592;49.708;10.900;2023-04-30T00:44:10;3.03;;;2.83;;
21432;SDS011;18592;49.708;10.900;2023-04-30T00:46:11;3.20;;;2.90;;
21432;SDS011;18592;49.708;10.900;2023-04-30T00:48:13;3.25;;;2.90;;
21432;SDS011;18592;49.708;10.900;2023-04-30T00:50:16;2.95;;;2.75;;
21432;SDS011;18592;49.708;10.900;2023-04-30T00:52:17;3.38;;;3.08;;
21432;SDS011;18592;49.708;10.900;2023-04-30T00:54:19;2.97;;;2.78;;
21432;SDS011;18592;49.708;10.900;2023-04-30T00:56:21;3.30;;;3.00;;
21432;SDS011;18592;49.708;10.900;2023-04-30T00:58:23;2.92;;;2.70;;
21432;SDS011;18592;49.708;10.900;2023-04-30T01:00:25;2.97;;;2.78;;
21432;SDS011;18592;49.708;10.900;2023-04-30T01:02:27;2.72;;;2.53;;
21432;SDS011;18592;49.708;10.900;2023-04-30T01:04:29;3.10;;;2.80;;
21432;SDS011;18592;49.708;10.900;2023-04-30T01:06:31;2.95;;;2.75;;
21432;SDS011;18592;49.708;10.900;2023-04-30T01:08:33;3.13;;;2.65;;
21432;SDS011;18592;49.708;10.900;2023-04-30T01:10:39;3.00;;;2.70;;
21432;SDS011;18592;49.708;10.900;2023-04-30T01:12:47;3.42;;;2.90;;
21432;SDS011;18592;49.708;10.900;2023-04-30T01:17:22;2.78;;;2.58;;
21432;SDS011;18592;49.708;10.900;2023-04-30T01:19:41;3.13;;;2.83;;
21432;SDS011;18592;49.708;10.900;2023-04-30T01:29:16;3.45;;;2.67;;
21432;SDS011;18592;49.708;10.900;2023-04-30T01:31:19;3.40;;;3.10;;
21432;SDS011;18592;49.708;10.900;2023-04-30T01:33:24;3.50;;;2.90;;
21432;SDS011;18592;49.708;10.900;2023-04-30T01:40:26;3.42;;;2.95;;
21432;SDS011;18592;49.708;10.900;2023-04-30T01:42:41;3.42;;;3.13;;
21432;SDS011;18592;49.708;10.900;2023-04-30T01:47:17;3.42;;;2.90;;
21432;SDS011;18592;49.708;10.900;2023-04-30T01:49:26;3.30;;;3.00;;
21432;SDS011;18592;49.708;10.900;2023-04-30T01:51:42;3.22;;;2.90;;
21432;SDS011;18592;49.708;10.900;2023-04-30T01:53:46;2.78;;;2.53;;
21432;SDS011;18592;49.708;10.900;2023-04-30T01:57:55;3.25;;;2.95;;
21432;SDS011;18592;49.708;10.900;2023-04-30T01:59:58;2.85;;;2.65;;
21432;SDS011;18592;49.708;10.900;2023-04-30T02:02:01;3.65;;;3.10;;
21432;SDS011;18592;49.708;10.900;2023-04-30T02:04:03;3.00;;;2.80;;
21432;SDS011;18592;49.708;10.900;2023-04-30T02:06:05;3.40;;;3.10;;
21432;SDS011;18592;49.708;10.900;2023-04-30T02:08:07;3.33;;;3.03;;
21432;SDS011;18592;49.708;10.900;2023-04-30T02:10:09;2.95;;;2.75;;
21432;SDS011;18592;49.708;10.900;2023-04-30T02:12:12;3.63;;;3.33;;
21432;SDS011;18592;49.708;10.900;2023-04-30T02:14:13;2.92;;;2.70;;
21432;SDS011;18592;49.708;10.900;2023-04-30T02:16:15;3.33;;;3.03;;
21432;SDS011;18592;49.708;10.900;2023-04-30T02:18:17;3.05;;;2.80;;
21432;SDS011;18592;49.708;10.900;2023-04-30T02:20:18;3.10;;;2.80;;
21432;SDS011;18592;49.708;10.900;2023-04-30T02:22:20;3.33;;;2.85;;
21432;SDS011;18592;49.708;10.900;2023-04-30T02:24:22;3.40;;;2.97;;
21432;SDS011;18592;49.708;10.900;2023-04-30T02:26:23;3.40;;;3.10;;
21432;SDS011;18592;49.708;10.900;2023-04-30T02:28:24;3.42;;;3.13;;
21432;SDS011;18592;49.708;10.900;2023-04-30T02:30:26;2.95;;;2.75;;
21432;SDS011;18592;49.708;10.900;2023-04-30T02:32:29;3.38;;;2.88;;
21432;SDS011;18592;49.708;10.900;2023-04-30T02:34:31;3.17;;;2.97;;
21432;SDS011;18592;49.708;10.900;2023-04-30T02:36:32;3.50;;;3.20;;
21432;SDS011;18592;49.708;10.900;2023-04-30T02:38:36;3.42;;;3.13;;
21432;SDS011;18592;49.708;10.900;2023-04-30T02:40:39;3.10;;;2.88;;
21432;SDS011;18592;49.708;10.900;2023-04-30T02:42:41;3.30;;;3.00;;
21432;SDS011;18592;49.708;10.900;2023-04-30T02:44:43;3.50;;;3.20;;
21432;SDS011;18592;49.708;10.900;2023-04-30T02:46:44;3.30;;;3.00;;
21432;SDS011;18592;49.708;10.900;2023-04-30T02:48:46;3.28;;;2.97;;
21432;SDS011;18592;49.708;10.900;2023-04-30T02:50:47;2.92;;;2.72;;
21432;SDS011;18592;49.708;10.900;2023-04-30T02:52:49;3.67;;;3.38;;
21432;SDS011;18592;49.708;10.900;2023-04-30T02:54:50;3.58;;;3.28;;
21432;SDS011;18592;49.708;10.900;2023-04-30T02:56:52;4.15;;;3.20;;
21432;SDS011;18592;49.708;10.900;2023-04-30T02:58:53;3.33;;;3.03;;
21432;SDS011;18592;49.708;10.900;2023-04-30T03:00:55;3.60;;;3.30;;
21432;SDS011;18592;49.708;10.900;2023-04-30T03:02:57;3.97;;;2.80;;
21432;SDS011;18592;49.708;10.900;2023-04-30T03:04:59;3.50;;;3.20;;
21432;SDS011;18592;49.708;10.900;2023-04-30T03:07:00;3.15;;;2.95;;
21432;SDS011;18592;49.708;10.900;2023-04-30T03:09:03;3.45;;;3.15;;
21432;SDS011;18592;49.708;10.900;2023-04-30T03:11:05;3.35;;;3.08;;
21432;SDS011;18592;49.708;10.900;2023-04-30T03:13:06;3.42;;;3.13;;
21432;SDS011;18592;49.708;10.900;2023-04-30T03:15:08;3.17;;;2.88;;
21432;SDS011;18592;49.708;10.900;2023-04-30T03:17:09;3.45;;;3.15;;
21432;SDS011;18592;49.708;10.900;2023-04-30T03:19:11;3.53;;;3.22;;
21432;SDS011;18592;49.708;10.900;2023-04-30T03:21:12;4.15;;;3.25;;
21432;SDS011;18592;49.708;10.900;2023-04-30T03:23:14;3.28;;;2.97;;
21432;SDS011;18592;49.708;10.900;2023-04-30T03:25:15;3.70;;;3.38;;
21432;SDS011;18592;49.708;10.900;2023-04-30T03:27:17;3.70;;;3.30;;
21432;SDS011;18592;49.708;10.900;2023-04-30T03:29:18;3.30;;;3.00;;
21432;SDS011;18592;49.708;10.900;2023-04-30T03:31:20;3.15;;;2.85;;
21432;SDS011;18592;49.708;10.900;2023-04-30T03:33:21;3.08;;;2.78;;
21432;SDS011;18592;49.708;10.900;2023-04-30T03:35:23;3.47;;;3.17;;
21432;SDS011;18592;49.708;10.900;2023-04-30T03:37:24;3.55;;;3.22;;
21432;SDS011;18592;49.708;10.900;2023-04-30T03:39:26;2.97;;;2.78;;
21432;SDS011;18592;49.708;10.900;2023-04-30T03:41:28;3.60;;;3.30;;
21432;SDS011;18592;49.708;10.900;2023-04-30T03:43:30;3.83;;;3.53;;
21432;SDS011;18592;49.708;10.900;2023-04-30T03:45:31;3.65;;;3.35;;
21432;SDS011;18592;49.708;10.900;2023-04-30T03:47:34;3.55;;;3.25;;
21432;SDS011;18592;49.708;10.900;2023-04-30T03:49:36;3.40;;;3.10;;
21432;SDS011;18592;49.708;10.900;2023-04-30T03:51:37;3.30;;;3.00;;
21432;SDS011;18592;49.708;10.900;2023-04-30T03:53:41;3.28;;;2.95;;
21432;SDS011;18592;49.708;10.900;2023-04-30T03:55:43;3.40;;;3.10;;
21432;SDS011;18592;49.708;10.900;2023-04-30T03:57:44;3.20;;;3.00;;
21432;SDS011;18592;49.708;10.900;2023-04-30T03:59:46;2.95;;;2.75;;
21432;SDS011;18592;49.708;10.900;2023-04-30T04:01:48;3.30;;;3.00;;
21432;SDS011;18592;49.708;10.900;2023-04-30T04:03:50;3.50;;;3.13;;
21432;SDS011;18592;49.708;10.900;2023-04-30T04:05:52;3.20;;;2.90;;
21432;SDS011;18592;49.708;10.900;2023-04-30T04:07:54;3.42;;;3.13;;
21432;SDS011;18592;49.708;10.900;2023-04-30T04:09:55;3.63;;;3.33;;
21432;SDS011;18592;49.708;10.900;2023-04-30T04:11:57;3.22;;;2.92;;
21432;SDS011;18592;49.708;10.900;2023-04-30T04:13:58;3.58;;;3.25;;
21432;SDS011;18592;49.708;10.900;2023-04-30T04:16:01;3.42;;;3.13;;
21432;SDS011;18592;49.708;10.900;2023-04-30T04:18:02;3.20;;;2.95;;
21432;SDS011;18592;49.708;10.900;2023-04-30T04:20:06;3.35;;;3.05;;
21432;SDS011;18592;49.708;10.900;2023-04-30T04:22:09;3.40;;;3.10;;
21432;SDS011;18592;49.708;10.900;2023-04-30T04:24:11;3.22;;;2.92;;
21432;SDS011;18592;49.708;10.900;2023-04-30T04:26:13;3.80;;;3.42;;
21432;SDS011;18592;49.708;10.900;2023-04-30T04:28:15;3.50;;;3.20;;
21432;SDS011;18592;49.708;10.900;2023-04-30T04:30:17;3.17;;;2.90;;
21432;SDS011;18592;49.708;10.900;2023-04-30T04:32:20;3.80;;;3.30;;
21432;SDS011;18592;49.708;10.900;2023-04-30T04:34:23;3.50;;;3.20;;
21432;SDS011;18592;49.708;10.900;2023-04-30T04:36:25;3.20;;;2.90;;
21432;SDS011;18592;49.708;10.900;2023-04-30T04:38:29;3.60;;;3.30;;
21432;SDS011;18592;49.708;10.900;2023-04-30T04:40:30;3.17;;;2.90;;
21432;SDS011;18592;49.708;10.900;2023-04-30T04:42:32;3.55;;;3.25;;
21432;SDS011;18592;49.708;10.900;2023-04-30T04:44:33;3.30;;;3.00;;
21432;SDS011;18592;49.708;10.900;2023-04-30T04:46:35;3.60;;;3.30;;
21432;SDS011;18592;49.708;10.900;2023-04-30T04:48:38;3.50;;;3.20;;
21432;SDS011;18592;49.708;10.900;2023-04-30T04:50:41;3.42;;;2.90;;
21432;SDS011;18592;49.708;10.900;2023-04-30T04:52:43;3.38;;;3.08;;
21432;SDS011;18592;49.708;10.900;2023-04-30T04:54:44;3.50;;;3.20;;
21432;SDS011;18592;49.708;10.900;2023-04-30T04:56:46;4.50;;;3.13;;
21432;SDS011;18592;49.708;10.900;2023-04-30T04:58:49;3.63;;;3.33;;
21432;SDS011;18592;49.708;10.900;2023-04-30T05:00:50;3.60;;;3.30;;
21432;SDS011;18592;49.708;10.900;2023-04-30T05:02:51;3.10;;;2.90;;
21432;SDS011;18592;49.708;10.900;2023-04-30T05:04:53;3.70;;;3.40;;
21432;SDS011;18592;49.708;10.900;2023-04-30T05:06:56;3.95;;;3.15;;
21432;SDS011;18592;49.708;10.900;2023-04-30T05:08:58;3.63;;;3.33;;
21432;SDS011;18592;49.708;10.900;2023-04-30T05:10:59;3.92;;;3.55;;
21432;SDS011;18592;49.708;10.900;2023-04-30T05:13:00;3.45;;;3.15;;
21432;SDS011;18592;49.708;10.900;2023-04-30T05:15:02;3.90;;;3.50;;
21432;SDS011;18592;49.708;10.900;2023-04-30T05:17:04;3.95;;;3.55;;
21432;SDS011;18592;49.708;10.900;2023-04-30T05:19:06;4.47;;;3.65;;
21432;SDS011;18592;49.708;10.900;2023-04-30T05:21:09;4.63;;;4.18;;
21432;SDS011;18592;49.708;10.900;2023-04-30T05:23:11;3.97;;;3.58;;
21432;SDS011;18592;49.708;10.900;2023-04-30T05:25:12;4.20;;;3.80;;
21432;SDS011;18592;49.708;10.900;2023-04-30T05:27:14;3.58;;;3.28;;
21432;SDS011;18592;49.708;10.900;2023-04-30T05:29:16;4.22;;;3.83;;
21432;SDS011;18592;49.708;10.900;2023-04-30T05:31:18;4.93;;;4.18;;
21432;SDS011;18592;49.708;10.900;2023-04-30T05:33:21;4.00;;;3.60;;
21432;SDS011;18592;49.708;10.900;2023-04-30T05:35:23;4.10;;;3.70;;
21432;SDS011;18592;49.708;10.900;2023-04-30T05:37:24;3.30;;;3.00;;
21432;SDS011;18592;49.708;10.900;2023-04-30T05:39:26;4.22;;;3.70;;
21432;SDS011;18592;49.708;10.900;2023-04-30T05:41:27;3.92;;;3.63;;
21432;SDS011;18592;49.708;10.900;2023-04-30T05:43:28;3.95;;;3.63;;
21432;SDS011;18592;49.708;10.900;2023-04-30T05:45:30;3.80;;;3.50;;
21432;SDS011;18592;49.708;10.900;2023-04-30T05:47:31;4.07;;;3.67;;
21432;SDS011;18592;49.708;10.900;2023-04-30T05:49:33;3.88;;;3.47;;
21432;SDS011;18592;49.708;10.900;2023-04-30T05:51:36;4.40;;;3.50;;
21432;SDS011;18592;49.708;10.900;2023-04-30T05:53:38;4.50;;;4.10;;
21432;SDS011;18592;49.708;10.900;2023-04-30T05:55:39;5.07;;;4.20;;
21432;SDS011;18592;49.708;10.900;2023-04-30T05:57:41;4.68;;;4.00;;
21432;SDS011;18592;49.708;10.900;2023-04-30T05:59:42;5.40;;;4.90;;
21432;SDS011;18592;49.708;10.900;2023-04-30T06:01:44;5.15;;;4.43;;
21432;SDS011;18592;49.708;10.900;2023-04-30T06:03:46;4.78;;;4.38;;
21432;SDS011;18592;49.708;10.900;2023-04-30T06:05:47;4.63;;;4.13;;
21432;SDS011;18592;49.708;10.900;2023-04-30T06:07:49;4.55;;;4.10;;
21432;SDS011;18592;49.708;10.900;2023-04-30T06:09:50;3.97;;;3.58;;
21432;SDS011;18592;49.708;10.900;2023-04-30T06:11:52;3.78;;;3.47;;
21432;SDS011;18592;49.708;10.900;2023-04-30T06:13:53;3.97;;;3.58;;
21432;SDS011;18592;49.708;10.900;2023-04-30T06:15:54;4.55;;;4.00;;
21432;SDS011;18592;49.708;10.900;2023-04-30T06:17:56;4.35;;;3.95;;
21432;SDS011;18592;49.708;10.900;2023-04-30T06:19:58;4.53;;;3.65;;
21432;SDS011;18592;49.708;10.900;2023-04-30T06:22:02;6.60;;;4.28;;
21432;SDS011;18592;49.708;10.900;2023-04-30T06:24:04;4.40;;;3.83;;
21432;SDS011;18592;49.708;10.900;2023-04-30T06:26:05;4.25;;;3.85;;
21432;SDS011;18592;49.708;10.900;2023-04-30T06:28:07;4.43;;;3.85;;
21432;SDS011;18592;49.708;10.900;2023-04-30T06:30:10;3.95;;;3.53;;
21432;SDS011;18592;49.708;10.900;2023-04-30T06:32:11;4.05;;;3.65;;
21432;SDS011;18592;49.708;10.900;2023-04-30T06:34:13;4.55;;;3.60;;
21432;SDS011;18592;49.708;10.900;2023-04-30T06:36:14;4.13;;;3.72;;
21432;SDS011;18592;49.708;10.900;2023-04-30T06:38:16;3.85;;;3.42;;
21432;SDS011;18592;49.708;10.900;2023-04-30T06:40:18;5.22;;;3.90;;
21432;SDS011;18592;49.708;10.900;2023-04-30T06:42:20;5.80;;;3.22;;
21432;SDS011;18592;49.708;10.900;2023-04-30T06:44:22;6.20;;;3.50;;
21432;SDS011;18592;49.708;10.900;2023-04-30T06:46:23;4.35;;;3.38;;
21432;SDS011;18592;49.708;10.900;2023-04-30T06:48:25;4.32;;;3.40;;
21432;SDS011;18592;49.708;10.900;2023-04-30T06:50:26;3.28;;;2.97;;
21432;SDS011;18592;49.708;10.900;2023-04-30T06:52:28;3.65;;;3.25;;
21432;SDS011;18592;49.708;10.900;2023-04-30T06:54:30;3.72;;;3.22;;
21432;SDS011;18592;49.708;10.900;2023-04-30T06:56:32;3.67;;;3.33;;
21432;SDS011;18592;49.708;10.900;2023-04-30T06:58:33;3.83;;;3.17;;
21432;SDS011;18592;49.708;10.900;2023-04-30T07:00:35;3.58;;;3.13;;
21432;SDS011;18592;49.708;10.900;2023-04-30T07:02:36;3.20;;;2.90;;
21432;SDS011;18592;49.708;10.900;2023-04-30T07:04:38;3.83;;;3.40;;
21432;SDS011;18592;49.708;10.900;2023-04-30T07:06:39;4.07;;;3.20;;
21432;SDS011;18592;49.708;10.900;2023-04-30T07:08:41;3.63;;;3.30;;
21432;SDS011;18592;49.708;10.900;2023-04-30T07:10:44;4.43;;;3.67;;
21432;SDS011;18592;49.708;10.900;2023-04-30T07:12:45;4.18;;;3.17;;
21432;SDS011;18592;49.708;10.900;2023-04-30T07:14:46;3.30;;;2.90;;
21432;SDS011;18592;49.708;10.900;2023-04-30T07:16:51;3.58;;;3.28;;
21432;SDS011;18592;49.708;10.900;2023-04-30T07:18:53;3.40;;;3.10;;
21432;SDS011;18592;49.708;10.900;2023-04-30T07:20:55;2.95;;;2.65;;
21432;SDS011;18592;49.708;10.900;2023-04-30T07:22:56;5.03;;;2.80;;
21432;SDS011;18592;49.708;10.900;2023-04-30T07:24:58;3.20;;;2.88;;
21432;SDS011;18592;49.708;10.900;2023-04-30T07:27:00;2.50;;;2.30;;
21432;SDS011;18592;49.708;10.900;2023-04-30T07:29:03;4.47;;;2.67;;
21432;SDS011;18592;49.708;10.900;2023-04-30T07:31:05;3.22;;;2.78;;
21432;SDS011;18592;49.708;10.900;2023-04-30T07:33:07;3.88;;;2.90;;
21432;SDS011;18592;49.708;10.900;2023-04-30T07:35:09;3.50;;;3.05;;
21432;SDS011;18592;49.708;10.900;2023-04-30T07:37:11;3.20;;;2.85;;
21432;SDS011;18592;49.708;10.900;2023-04-30T07:39:13;2.90;;;2.60;;
21432;SDS011;18592;49.708;10.900;2023-04-30T07:41:15;2.83;;;2.53;;
21432;SDS011;18592;49.708;10.900;2023-04-30T07:43:16;3.08;;;2.60;;
21432;SDS011;18592;49.708;10.900;2023-04-30T07:45:18;2.72;;;2.53;;
21432;SDS011;18592;49.708;10.900;2023-04-30T07:47:22;2.35;;;2.13;;
21432;SDS011;18592;49.708;10.900;2023-04-30T07:49:24;2.95;;;2.60;;
21432;SDS011;18592;49.708;10.900;2023-04-30T07:51:26;2.50;;;2.30;;
21432;SDS011;18592;49.708;10.900;2023-04-30T07:53:27;3.35;;;2.25;;
21432;SDS011;18592;49.708;10.900;2023-04-30T07:55:29;2.42;;;2.22;;
21432;SDS011;18592;49.708;10.900;2023-04-30T07:57:31;2.80;;;2.47;;
21432;SDS011;18592;49.708;10.900;2023-04-30T07:59:32;2.88;;;2.60;;
21432;SDS011;18592;49.708;10.900;2023-04-30T08:01:34;3.47;;;2.30;;
21432;SDS011;18592;49.708;10.900;2023-04-30T08:03:36;2.63;;;1.98;;
21432;SDS011;18592;49.708;10.900;2023-04-30T08:05:37;2.30;;;2.10;;
21432;SDS011;18592;49.708;10.900;2023-04-30T08:07:39;2.33;;;1.83;;
21432;SDS011;18592;49.708;10.900;2023-04-30T08:09:41;2.63;;;1.90;;
21432;SDS011;18592;49.708;10.900;2023-04-30T08:11:43;1.63;;;1.52;;
21432;SDS011;18592;49.708;10.900;2023-04-30T08:13:44;2.05;;;1.85;;
21432;SDS011;18592;49.708;10.900;2023-04-30T08:15:47;2.78;;;2.33;;
21432;SDS011;18592;49.708;10.900;2023-04-30T08:17:49;2.63;;;2.10;;
21432;SDS011;18592;49.708;10.900;2023-04-30T08:19:51;2.22;;;2.00;;
21432;SDS011;18592;49.708;10.900;2023-04-30T08:21:53;3.05;;;1.70;;
21432;SDS011;18592;49.708;10.900;2023-04-30T08:23:54;1.92;;;1.73;;
21432;SDS011;18592;49.708;10.900;2023-04-30T08:25:57;2.35;;;1.95;;
21432;SDS011;18592;49.708;10.900;2023-04-30T08:27:58;1.90;;;1.70;;
21432;SDS011;18592;49.708;10.900;2023-04-30T08:30:00;2.35;;;1.80;;
21432;SDS011;18592;49.708;10.900;2023-04-30T08:32:01;2.08;;;1.70;;
21432;SDS011;18592;49.708;10.900;2023-04-30T08:34:04;1.73;;;1.63;;
21432;SDS011;18592;49.708;10.900;2023-04-30T08:36:05;2.95;;;1.73;;
21432;SDS011;18592;49.708;10.900;2023-04-30T08:38:07;2.10;;;1.55;;
21432;SDS011;18592;49.708;10.900;2023-04-30T08:40:08;1.95;;;1.77;;
21432;SDS011;18592;49.708;10.900;2023-04-30T08:42:13;1.70;;;1.50;;
21432;SDS011;18592;49.708;10.900;2023-04-30T08:44:15;1.88;;;1.67;;
21432;SDS011;18592;49.708;10.900;2023-04-30T08:46:16;1.92;;;1.70;;
21432;SDS011;18592;49.708;10.900;2023-04-30T08:48:18;3.20;;;1.55;;
21432;SDS011;18592;49.708;10.900;2023-04-30T08:50:23;2.40;;;1.83;;
21432;SDS011;18592;49.708;10.900;2023-04-30T08:52:25;2.35;;;1.63;;
21432;SDS011;18592;49.708;10.900;2023-04-30T08:54:29;2.25;;;1.70;;
21432;SDS011;18592;49.708;10.900;2023-04-30T08:56:32;3.40;;;1.67;;
21432;SDS011;18592;49.708;10.900;2023-04-30T08:58:35;1.33;;;1.23;;
21432;SDS011;18592;49.708;10.900;2023-04-30T09:00:38;1.65;;;1.42;;
21432;SDS011;18592;49.708;10.900;2023-04-30T09:02:41;1.50;;;1.30;;
21432;SDS011;18592;49.708;10.900;2023-04-30T09:04:43;1.67;;;1.52;;
21432;SDS011;18592;49.708;10.900;2023-04-30T09:06:45;3.58;;;1.45;;
21432;SDS011;18592;49.708;10.900;2023-04-30T09:08:48;1.38;;;1.27;;
21432;SDS011;18592;49.708;10.900;2023-04-30T09:10:50;1.67;;;1.40;;
21432;SDS011;18592;49.708;10.900;2023-04-30T09:15:01;1.38;;;1.27;;
21432;SDS011;18592;49.708;10.900;2023-04-30T09:17:06;1.70;;;1.38;;
21432;SDS011;18592;49.708;10.900;2023-04-30T09:19:28;3.47;;;1.50;;
21432;SDS011;18592;49.708;10.900;2023-04-30T09:21:34;1.30;;;1.20;;
21432;SDS011;18592;49.708;10.900;2023-04-30T09:23:38;1.95;;;1.30;;
21432;SDS011;18592;49.708;10.900;2023-04-30T09:25:55;1.17;;;1.08;;
21432;SDS011;18592;49.708;10.900;2023-04-30T09:28:07;1.25;;;1.15;;
21432;SDS011;18592;49.708;10.900;2023-04-30T09:30:28;1.10;;;0.90;;
21432;SDS011;18592;49.708;10.900;2023-04-30T09:32:32;1.30;;;1.20;;
21432;SDS011;18592;49.708;10.900;2023-04-30T09:34:33;1.25;;;1.10;;
21432;SDS011;18592;49.708;10.900;2023-04-30T09:36:35;1.50;;;1.02;;
21432;SDS011;18592;49.708;10.900;2023-04-30T09:38:37;1.38;;;1.20;;
21432;SDS011;18592;49.708;10.900;2023-04-30T09:40:40;1.83;;;1.27;;
21432;SDS011;18592;49.708;10.900;2023-04-30T09:42:56;1.50;;;1.08;;
21432;SDS011;18592;49.708;10.900;2023-04-30T09:44:59;1.13;;;1.02;;
21432;SDS011;18592;49.708;10.900;2023-04-30T09:47:01;1.52;;;0.90;;
21432;SDS011;18592;49.708;10.900;2023-04-30T09:49:04;1.20;;;1.10;;
21432;SDS011;18592;49.708;10.900;2023-04-30T09:51:07;1.75;;;1.00;;
21432;SDS011;18592;49.708;10.900;2023-04-30T09:53:09;2.33;;;1.40;;
21432;SDS011;18592;49.708;10.900;2023-04-30T09:55:15;1.30;;;1.20;;
21432;SDS011;18592;49.708;10.900;2023-04-30T09:57:16;1.20;;;0.98;;
21432;SDS011;18592;49.708;10.900;2023-04-30T09:59:25;1.40;;;1.30;;
21432;SDS011;18592;49.708;10.900;2023-04-30T10:01:31;1.05;;;0.98;;
21432;SDS011;18592;49.708;10.900;2023-04-30T10:03:33;1.00;;;0.90;;
21432;SDS011;18592;49.708;10.900;2023-04-30T10:07:44;1.08;;;0.93;;
21432;SDS011;18592;49.708;10.900;2023-04-30T10:11:50;1.25;;;1.05;;
21432;SDS011;18592;49.708;10.900;2023-04-30T10:14:07;0.88;;;0.88;;
21432;SDS011;18592;49.708;10.900;2023-04-30T10:16:22;2.50;;;1.00;;
21432;SDS011;18592;49.708;10.900;2023-04-30T10:18:31;1.05;;;0.95;;
21432;SDS011;18592;49.708;10.900;2023-04-30T10:20:35;1.08;;;1.00;;
21432;SDS011;18592;49.708;10.900;2023-04-30T10:22:37;0.80;;;0.80;;
21432;SDS011;18592;49.708;10.900;2023-04-30T10:24:41;1.33;;;0.80;;
21432;SDS011;18592;49.708;10.900;2023-04-30T10:26:45;1.42;;;1.13;;
21432;SDS011;18592;49.708;10.900;2023-04-30T10:28:47;1.10;;;1.00;;
21432;SDS011;18592;49.708;10.900;2023-04-30T10:30:50;1.38;;;1.27;;
21432;SDS011;18592;49.708;10.900;2023-04-30T10:33:10;2.03;;;1.80;;
21432;SDS011;18592;49.708;10.900;2023-04-30T10:35:22;2.63;;;2.13;;
21432;SDS011;18592;49.708;10.900;2023-04-30T10:37:33;1.92;;;1.73;;
21432;SDS011;18592;49.708;10.900;2023-04-30T10:39:40;1.88;;;1.77;;
21432;SDS011;18592;49.708;10.900;2023-04-30T10:41:45;1.95;;;1.55;;
21432;SDS011;18592;49.708;10.900;2023-04-30T10:43:47;2.08;;;1.88;;
21432;SDS011;18592;49.708;10.900;2023-04-30T10:45:49;2.90;;;2.08;;
21432;SDS011;18592;49.708;10.900;2023-04-30T10:47:53;4.13;;;3.33;;
21432;SDS011;18592;49.708;10.900;2023-04-30T10:50:02;5.32;;;4.50;;
21432;SDS011;18592;49.708;10.900;2023-04-30T10:52:04;4.80;;;4.40;;
21432;SDS011;18592;49.708;10.900;2023-04-30T10:54:06;4.65;;;4.22;;
21432;SDS011;18592;49.708;10.900;2023-04-30T10:56:08;3.70;;;3.30;;
21432;SDS011;18592;49.708;10.900;2023-04-30T10:58:23;4.13;;;2.85;;
21432;SDS011;18592;49.708;10.900;2023-04-30T11:00:27;4.82;;;2.45;;
21432;SDS011;18592;49.708;10.900;2023-04-30T11:02:42;2.00;;;1.90;;
21432;SDS011;18592;49.708;10.900;2023-04-30T11:05:07;1.70;;;1.60;;
21432;SDS011;18592;49.708;10.900;2023-04-30T11:07:10;1.17;;;1.08;;
21432;SDS011;18592;49.708;10.900;2023-04-30T11:09:11;1.25;;;1.10;;
21432;SDS011;18592;49.708;10.900;2023-04-30T11:11:16;1.17;;;1.08;;
21432;SDS011;18592;49.708;10.900;2023-04-30T11:13:21;1.52;;;0.98;;
21432;SDS011;18592;49.708;10.900;2023-04-30T11:15:26;1.00;;;0.90;;
21432;SDS011;18592;49.708;10.900;2023-04-30T11:17:35;2.33;;;0.88;;
21432;SDS011;18592;49.708;10.900;2023-04-30T11:19:43;1.20;;;0.85;;
21432;SDS011;18592;49.708;10.900;2023-04-30T11:24:05;1.90;;;0.95;;
21432;SDS011;18592;49.708;10.900;2023-04-30T11:26:07;1.83;;;0.90;;
21432;SDS011;18592;49.708;10.900;2023-04-30T11:28:27;0.80;;;0.80;;
21432;SDS011;18592;49.708;10.900;2023-04-30T11:30:29;1.30;;;1.10;;
21432;SDS011;18592;49.708;10.900;2023-04-30T11:32:31;1.13;;;1.02;;
21432;SDS011;18592;49.708;10.900;2023-04-30T11:34:37;1.45;;;1.35;;
21432;SDS011;18592;49.708;10.900;2023-04-30T11:36:40;1.58;;;1.17;;
21432;SDS011;18592;49.708;10.900;2023-04-30T11:38:46;1.70;;;1.30;;
21432;SDS011;18592;49.708;10.900;2023-04-30T11:40:48;1.50;;;1.17;;
21432;SDS011;18592;49.708;10.900;2023-04-30T11:42:51;1.20;;;1.02;;
21432;SDS011;18592;49.708;10.900;2023-04-30T11:44:52;1.00;;;0.98;;
21432;SDS011;18592;49.708;10.900;2023-04-30T11:46:54;1.58;;;1.17;;
21432;SDS011;18592;49.708;10.900;2023-04-30T11:48:56;1.95;;;0.95;;
21432;SDS011;18592;49.708;10.900;2023-04-30T11:50:58;0.90;;;0.90;;
21432;SDS011;18592;49.708;10.900;2023-04-30T11:52:59;1.38;;;0.90;;
21432;SDS011;18592;49.708;10.900;2023-04-30T11:55:12;1.25;;;1.00;;
21432;SDS011;18592;49.708;10.900;2023-04-30T11:57:16;1.55;;;0.80;;
21432;SDS011;18592;49.708;10.900;2023-04-30T11:59:18;0.98;;;0.77;;
21432;SDS011;18592;49.708;10.900;2023-04-30T12:01:20;2.63;;;1.00;;
21432;SDS011;18592;49.708;10.900;2023-04-30T12:03:22;1.13;;;1.02;;
21432;SDS011;18592;49.708;10.900;2023-04-30T12:05:24;2.20;;;1.00;;
21432;SDS011;18592;49.708;10.900;2023-04-30T12:07:28;1.50;;;0.90;;
21432;SDS011;18592;49.708;10.900;2023-04-30T12:09:29;1.30;;;1.10;;
21432;SDS011;18592;49.708;10.900;2023-04-30T12:11:31;1.75;;;0.90;;
21432;SDS011;18592;49.708;10.900;2023-04-30T12:13:32;1.65;;;0.90;;
21432;SDS011;18592;49.708;10.900;2023-04-30T12:15:34;1.48;;;1.10;;
21432;SDS011;18592;49.708;10.900;2023-04-30T12:17:37;0.77;;;0.77;;
21432;SDS011;18592;49.708;10.900;2023-04-30T12:19:38;3.30;;;1.13;;
21432;SDS011;18592;49.708;10.900;2023-04-30T12:21:41;1.10;;;1.00;;
21432;SDS011;18592;49.708;10.900;2023-04-30T12:23:45;1.00;;;0.90;;
21432;SDS011;18592;49.708;10.900;2023-04-30T12:25:47;1.25;;;0.98;;
21432;SDS011;18592;49.708;10.900;2023-04-30T12:27:51;0.90;;;0.70;;
21432;SDS011;18592;49.708;10.900;2023-04-30T12:29:53;1.98;;;1.02;;
21432;SDS011;18592;49.708;10.900;2023-04-30T12:31:56;4.35;;;0.80;;
21432;SDS011;18592;49.708;10.900;2023-04-30T12:34:03;1.17;;;0.82;;
21432;SDS011;18592;49.708;10.900;2023-04-30T12:36:08;1.33;;;0.90;;
21432;SDS011;18592;49.708;10.900;2023-04-30T12:38:14;1.00;;;0.90;;